Time;durP1;ratioP1;P1;durP2;ratioP2;P2;SDS_P1;SDS_P2;PMS_P1;PMS_P2;Temp;Humidity;BMP_temperature;BMP_pressure;BME280_temperature;BME280_humidity;BME280_pressure;Samples;Min_cycle;Max_cycle;Signal;HPM_P1;HPM_P2
2022/03/23 00:02:09;;;;;;;6.82;6.13;;;22.10;62.40;;;;;;6127214;28;89172;-66
2022/03/23 00:05:11;;;;;;;7.05;6.35;;;22.10;62.70;;;;;;6135552;28;90058;-66
2022/03/23 00:08:14;;;;;;;7.20;6.50;;;22.10;62.30;;;;;;6134245;28;89105;-66
2022/03/23 00:11:17;;;;;;;7.20;6.50;;;22.10;62.30;;;;;;6134639;28;89540;-66
2022/03/23 00:14:19;;;;;;;7.15;6.45;;;22.00;62.30;;;;;;6133414;28;89187;-66
2022/03/23 00:17:21;;;;;;;7.22;6.50;;;22.00;62.30;;;;;;6120821;28;89125;-66
2022/03/23 00:20:23;;;;;;;8.00;7.20;;;22.00;62.30;;;;;;6133727;28;89346;-67
2022/03/23 00:23:27;;;;;;;7.65;6.95;;;22.00;62.30;;;;;;6135677;28;89253;-66
2022/03/23 00:26:29;;;;;;;8.30;7.20;;;22.00;62.40;;;;;;6134940;28;88731;-66
2022/03/23 00:29:31;;;;;;;7.95;7.15;;;22.00;62.40;;;;;;6133099;28;87845;-66
2022/03/23 00:32:33;;;;;;;8.57;7.28;;;22.00;62.50;;;;;;6128025;28;89166;-66
2022/03/23 00:35:35;;;;;;;8.57;7.63;;;22.00;62.40;;;;;;6132920;28;90225;-66
2022/03/23 00:38:39;;;;;;;8.00;7.20;;;22.00;62.50;;;;;;6134135;28;89490;-66
2022/03/23 00:41:41;;;;;;;9.18;7.40;;;21.90;62.40;;;;;;6135471;28;89162;-66
2022/03/23 00:44:43;;;;;;;8.30;7.50;;;21.90;62.40;;;;;;6133458;28;89019;-66
2022/03/23 00:47:46;;;;;;;8.90;8.00;;;21.90;62.40;;;;;;6131728;28;87985;-66
2022/03/23 00:50:49;;;;;;;8.70;7.80;;;21.90;62.40;;;;;;6124794;28;88057;-66
2022/03/23 00:53:52;;;;;;;8.73;7.82;;;21.90;62.40;;;;;;6121413;28;89097;-65
2022/03/23 00:56:54;;;;;;;8.32;7.53;;;21.90;62.40;;;;;;6135055;28;88156;-66
2022/03/23 00:59:56;;;;;;;8.85;7.97;;;21.90;62.50;;;;;;6113202;28;87897;-66
2022/03/23 01:02:58;;;;;;;8.80;8.00;;;21.90;62.40;;;;;;6121832;28;89113;-66
2022/03/23 01:06:00;;;;;;;9.00;8.07;;;21.90;62.40;;;;;;6128819;28;89305;-66
2022/03/23 01:09:05;;;;;;;9.95;8.20;;;21.90;62.40;;;;;;6134473;28;86897;-66
2022/03/23 01:12:08;;;;;;;8.70;7.80;;;21.90;62.30;;;;;;6132203;28;89288;-66
2022/03/23 01:15:12;;;;;;;9.20;8.20;;;21.90;62.30;;;;;;6133332;28;88089;-65
2022/03/23 01:18:14;;;;;;;8.85;7.80;;;21.90;62.30;;;;;;6130635;28;89222;-66
2022/03/23 01:21:17;;;;;;;8.85;7.95;;;21.90;62.30;;;;;;6123892;28;89481;-66
2022/03/23 01:24:20;;;;;;;9.60;8.05;;;21.90;62.30;;;;;;6134281;28;87953;-66
2022/03/23 01:27:22;;;;;;;8.90;7.97;;;21.90;62.30;;;;;;6121388;28;88383;-66
2022/03/23 01:30:24;;;;;;;9.23;8.20;;;21.90;62.30;;;;;;6125881;28;87796;-65
2022/03/23 01:33:26;;;;;;;9.30;8.40;;;21.80;62.30;;;;;;6118507;28;89081;-66
2022/03/23 01:36:29;;;;;;;7.82;6.90;;;21.80;62.30;;;;;;6132637;28;90241;-65
2022/03/23 01:39:32;;;;;;;8.93;7.07;;;21.80;62.30;;;;;;6132592;28;89130;-66
2022/03/23 01:42:34;;;;;;;8.20;7.30;;;21.80;62.20;;;;;;6133853;28;89246;-66
2022/03/23 01:45:36;;;;;;;8.82;7.45;;;21.80;62.20;;;;;;6134939;28;89575;-66
2022/03/23 01:48:38;;;;;;;9.48;7.75;;;21.80;62.30;;;;;;6132940;28;89041;-66
2022/03/23 01:51:40;;;;;;;8.30;7.50;;;21.80;62.30;;;;;;6132098;28;87142;-66
2022/03/23 01:54:45;;;;;;;9.45;7.47;;;21.70;62.30;;;;;;6132043;28;89176;-66
2022/03/23 01:57:48;;;;;;;8.23;7.43;;;21.70;62.30;;;;;;6132541;28;88390;-66
2022/03/23 02:00:50;;;;;;;7.90;7.10;;;21.80;62.30;;;;;;6124954;28;89111;-66
2022/03/23 02:03:52;;;;;;;7.95;7.20;;;21.70;62.30;;;;;;6133860;28;88563;-66
2022/03/23 02:06:54;;;;;;;8.70;7.60;;;21.70;62.30;;;;;;6131607;28;90167;-66
2022/03/23 02:09:58;;;;;;;10.35;6.93;;;21.70;62.30;;;;;;6130863;28;87959;-65
2022/03/23 02:13:00;;;;;;;8.38;7.57;;;21.70;62.30;;;;;;6124086;28;89106;-66
2022/03/23 02:16:02;;;;;;;8.15;7.15;;;21.70;62.30;;;;;;6132591;28;89252;-65
2022/03/23 02:19:04;;;;;;;7.72;7.03;;;21.70;62.30;;;;;;6132467;28;89631;-65
2022/03/23 02:22:08;;;;;;;8.18;7.38;;;21.70;62.20;;;;;;6132562;28;89130;-65
2022/03/23 02:25:10;;;;;;;8.48;7.68;;;21.70;62.20;;;;;;6136462;28;89124;-65
2022/03/23 02:28:14;;;;;;;8.30;7.40;;;21.70;62.20;;;;;;6138013;28;88545;-65
2022/03/23 02:31:16;;;;;;;8.50;7.30;;;21.70;62.20;;;;;;6123669;28;89046;-65
2022/03/23 02:34:19;;;;;;;8.20;7.25;;;21.70;62.20;;;;;;6137578;28;89045;-65
2022/03/23 02:37:23;;;;;;;8.13;7.30;;;21.70;62.30;;;;;;6131195;28;90073;-65
2022/03/23 02:40:25;;;;;;;7.88;7.07;;;21.70;62.20;;;;;;6124420;28;89506;-65
2022/03/23 02:43:28;;;;;;;8.20;7.40;;;21.60;62.20;;;;;;6137850;28;88012;-65
2022/03/23 02:46:35;;;;;;;7.65;6.95;;;21.70;62.30;;;;;;6127452;28;89078;-65
2022/03/23 02:49:37;;;;;;;7.88;7.18;;;21.70;62.30;;;;;;6137640;28;88992;-65
2022/03/23 03:01:52;;;;;;;8.02;7.22;;;21.70;62.30;;;;;;6135242;28;89205;-65
2022/03/23 03:03:01;;;;;;;7.35;6.65;;;21.60;62.30;;;;;;6135953;28;87379;-65
2022/03/23 03:06:04;;;;;;;8.02;6.97;;;21.60;63.20;;;;;;6127773;28;88103;-65
2022/03/23 03:09:07;;;;;;;7.75;6.95;;;21.60;62.30;;;;;;6132562;28;88906;-65
2022/03/23 03:12:11;;;;;;;7.45;6.75;;;21.60;62.30;;;;;;6134749;28;89183;-66
2022/03/23 03:15:13;;;;;;;7.65;6.90;;;21.60;62.30;;;;;;6131359;28;89160;-65
2022/03/23 03:18:15;;;;;;;7.22;6.53;;;21.60;62.30;;;;;;6137050;28;87988;-65
2022/03/23 03:21:18;;;;;;;7.60;6.85;;;21.60;62.20;;;;;;6135598;28;87935;-66
2022/03/23 03:24:22;;;;;;;7.28;6.57;;;21.60;62.20;;;;;;6117153;28;87976;-65
2022/03/23 03:27:24;;;;;;;6.95;6.25;;;21.60;62.20;;;;;;6129289;28;89173;-65
2022/03/23 03:30:26;;;;;;;7.10;6.40;;;21.60;62.20;;;;;;6134438;28;88333;-65
2022/03/23 03:33:28;;;;;;;7.85;6.80;;;21.60;62.20;;;;;;6131371;28;89442;-66
2022/03/23 03:36:30;;;;;;;7.28;6.57;;;21.60;62.20;;;;;;6133519;28;89157;-65
2022/03/23 03:39:34;;;;;;;7.43;6.60;;;21.60;62.20;;;;;;6134105;28;90173;-66
2022/03/23 03:42:36;;;;;;;7.15;6.45;;;21.60;62.20;;;;;;6128525;28;89099;-65
2022/03/23 03:45:38;;;;;;;7.22;6.53;;;21.60;62.20;;;;;;6134327;28;89108;-65
2022/03/23 03:48:41;;;;;;;6.90;6.20;;;21.60;62.20;;;;;;6134651;28;89058;-66
2022/03/23 03:51:43;;;;;;;7.18;6.47;;;21.60;62.30;;;;;;6134243;28;88027;-66
2022/03/23 03:54:47;;;;;;;6.82;6.13;;;21.60;62.30;;;;;;6132153;28;89400;-65
2022/03/23 03:57:49;;;;;;;6.88;6.28;;;21.60;62.30;;;;;;6126631;28;89402;-65
2022/03/23 04:00:51;;;;;;;6.93;6.22;;;21.50;62.20;;;;;;6125363;28;88610;-65
2022/03/23 04:03:53;;;;;;;6.93;6.22;;;21.50;62.20;;;;;;6133322;28;89354;-65
2022/03/23 04:06:55;;;;;;;7.00;6.30;;;21.50;62.20;;;;;;6133623;28;89304;-66
2022/03/23 04:09:58;;;;;;;6.63;6.03;;;21.50;62.20;;;;;;6133814;28;90104;-66
2022/03/23 04:13:00;;;;;;;6.10;5.50;;;21.50;62.30;;;;;;6135791;28;89128;-65
2022/03/23 04:16:03;;;;;;;6.55;5.95;;;21.50;62.30;;;;;;6134947;28;89469;-65
2022/03/23 04:19:06;;;;;;;7.22;5.90;;;21.50;62.20;;;;;;6133710;28;88067;-66
2022/03/23 04:22:08;;;;;;;6.68;6.05;;;21.50;62.20;;;;;;6123716;28;89462;-65
2022/03/23 04:25:13;;;;;;;6.55;5.85;;;21.50;62.20;;;;;;6134064;28;89279;-65
2022/03/23 04:28:15;;;;;;;6.30;5.40;;;21.50;62.20;;;;;;6116314;28;89235;-65
2022/03/23 04:31:17;;;;;;;6.53;5.93;;;21.50;62.10;;;;;;6128004;28;88502;-65
2022/03/23 04:34:19;;;;;;;6.30;5.65;;;21.50;62.00;;;;;;6126543;28;89364;-66
2022/03/23 04:37:21;;;;;;;6.15;5.55;;;21.50;62.00;;;;;;6132859;28;88800;-66
2022/03/23 04:40:25;;;;;;;6.03;5.50;;;21.60;62.00;;;;;;6122030;28;90043;-65
2022/03/23 04:43:27;;;;;;;6.15;5.55;;;21.50;62.00;;;;;;6134239;28;89171;-65
2022/03/23 04:46:29;;;;;;;6.00;5.40;;;21.60;61.90;;;;;;6132895;28;89397;-65
2022/03/23 04:49:31;;;;;;;6.43;5.72;;;21.60;61.80;;;;;;6125005;28;89033;-65
2022/03/23 04:52:33;;;;;;;6.30;5.70;;;21.60;61.80;;;;;;6128784;28;89022;-65
2022/03/23 04:55:36;;;;;;;5.70;5.20;;;21.70;61.80;;;;;;6115186;28;89191;-65
2022/03/23 04:58:38;;;;;;;6.10;5.50;;;21.60;61.70;;;;;;6129079;28;89227;-65
2022/03/23 05:01:40;;;;;;;5.45;4.93;;;21.60;61.60;;;;;;6125567;28;87548;-65
2022/03/23 05:04:43;;;;;;;5.57;5.07;;;21.70;61.60;;;;;;6121399;28;88719;-65
2022/03/23 05:07:46;;;;;;;5.90;5.40;;;21.70;61.60;;;;;;6120948;28;89048;-65
2022/03/23 05:10:49;;;;;;;6.68;5.20;;;21.70;61.50;;;;;;6132959;28;90022;-65
2022/03/23 05:13:51;;;;;;;5.85;5.32;;;21.70;61.50;;;;;;6126138;28;89001;-65
2022/03/23 05:16:53;;;;;;;5.88;5.38;;;21.70;61.50;;;;;;6134056;28;89083;-65
2022/03/23 05:19:55;;;;;;;5.88;5.25;;;21.80;61.50;;;;;;6133812;28;89105;-66
2022/03/23 05:22:57;;;;;;;5.70;5.10;;;21.80;61.40;;;;;;6133747;28;89106;-65
2022/03/23 05:26:01;;;;;;;5.65;4.85;;;21.80;61.30;;;;;;6132374;28;89124;-66
2022/03/23 05:29:03;;;;;;;5.60;5.10;;;21.90;61.30;;;;;;6133333;28;89119;-65
2022/03/23 05:32:06;;;;;;;5.40;4.90;;;21.80;61.30;;;;;;6126222;28;88409;-65
2022/03/23 05:35:10;;;;;;;5.88;5.28;;;21.90;61.30;;;;;;6124140;28;88962;-65
2022/03/23 05:38:31;;;;;;;5.95;4.93;;;21.90;61.20;;;;;;6121487;28;89171;-65
2022/03/23 05:41:34;;;;;;;7.78;5.32;;;21.90;61.30;;;;;;6130021;28;90060;-65
2022/03/23 05:44:37;;;;;;;5.10;4.70;;;21.90;61.10;;;;;;6121859;28;88134;-65
2022/03/23 05:47:40;;;;;;;5.50;4.95;;;21.90;61.10;;;;;;6113127;28;89392;-65
2022/03/23 05:50:42;;;;;;;5.65;5.15;;;22.00;61.10;;;;;;6129602;28;87948;-66
2022/03/23 05:53:44;;;;;;;5.10;4.60;;;22.00;61.10;;;;;;6134371;28;89052;-65
2022/03/23 05:56:47;;;;;;;6.13;5.15;;;22.00;61.10;;;;;;6132921;28;89115;-67
2022/03/23 06:00:09;;;;;;;6.00;4.80;;;22.00;61.10;;;;;;6118176;28;88317;-65
2022/03/23 06:03:11;;;;;;;6.03;4.32;;;22.00;61.20;;;;;;6124876;28;88303;-65
2022/03/23 06:06:13;;;;;;;5.82;4.97;;;22.10;61.20;;;;;;6132064;28;89061;-65
2022/03/23 06:09:15;;;;;;;5.35;4.68;;;22.10;61.20;;;;;;6133133;28;89034;-65
2022/03/23 06:12:19;;;;;;;5.45;4.95;;;22.10;61.10;;;;;;6108973;28;90031;-65
2022/03/23 06:15:21;;;;;;;5.90;4.88;;;22.10;61.10;;;;;;6133153;28;89175;-65
2022/03/23 06:18:24;;;;;;;5.60;4.82;;;22.10;61.10;;;;;;6131036;28;89138;-65
2022/03/23 06:21:26;;;;;;;4.88;4.38;;;22.20;61.10;;;;;;6118270;28;89138;-65
2022/03/23 06:24:28;;;;;;;5.22;4.65;;;22.20;61.10;;;;;;6133567;28;89282;-66
2022/03/23 06:27:31;;;;;;;5.28;4.78;;;22.20;61.00;;;;;;6127577;28;89107;-65
2022/03/23 06:30:34;;;;;;;5.10;4.60;;;22.20;61.00;;;;;;6125991;28;89221;-65
2022/03/23 06:33:36;;;;;;;4.85;4.35;;;22.20;61.00;;;;;;6121480;28;88520;-65
2022/03/23 06:36:38;;;;;;;5.10;4.60;;;22.20;61.00;;;;;;6131951;28;87379;-65
2022/03/23 06:39:40;;;;;;;4.97;4.45;;;22.20;61.00;;;;;;6118186;28;89150;-65
2022/03/23 06:42:44;;;;;;;5.38;4.82;;;22.30;61.00;;;;;;6126093;28;90025;-65
2022/03/23 06:45:46;;;;;;;5.47;4.90;;;22.30;61.10;;;;;;6113562;28;88819;-65
2022/03/23 06:48:48;;;;;;;4.93;4.53;;;22.30;61.10;;;;;;6129535;28;89092;-65
2022/03/23 06:51:50;;;;;;;4.95;4.47;;;22.30;61.10;;;;;;6121051;28;88286;-65
2022/03/23 06:54:52;;;;;;;5.25;4.75;;;22.30;61.20;;;;;;6131391;28;89091;-65
2022/03/23 06:57:56;;;;;;;5.00;4.50;;;22.30;61.30;;;;;;6120341;28;87856;-65
2022/03/23 07:00:59;;;;;;;5.00;4.50;;;22.40;61.30;;;;;;6133374;28;89145;-65
2022/03/23 07:04:02;;;;;;;4.70;4.30;;;22.30;61.30;;;;;;6130330;28;88320;-65
2022/03/23 07:07:04;;;;;;;5.13;4.57;;;22.40;61.30;;;;;;6125430;28;89377;-65
2022/03/23 07:10:06;;;;;;;4.45;4.05;;;22.30;61.10;;;;;;6131014;28;89143;-65
2022/03/23 07:13:09;;;;;;;4.80;4.30;;;22.40;61.30;;;;;;6129429;28;90049;-65
2022/03/23 07:16:11;;;;;;;5.13;4.60;;;22.40;61.20;;;;;;6129152;28;89347;-64
2022/03/23 07:19:13;;;;;;;4.60;4.20;;;22.40;61.20;;;;;;6135334;28;89017;-65
2022/03/23 07:22:16;;;;;;;4.70;4.30;;;22.40;61.20;;;;;;6121642;28;87878;-65
2022/03/23 07:25:18;;;;;;;4.95;4.55;;;22.40;61.20;;;;;;6136565;28;89368;-65
2022/03/23 07:28:22;;;;;;;5.00;4.50;;;22.50;61.30;;;;;;6122949;28;89359;-65
2022/03/23 07:31:24;;;;;;;4.90;4.40;;;22.50;61.30;;;;;;6129234;28;89422;-65
2022/03/23 07:34:26;;;;;;;5.15;4.65;;;22.50;61.30;;;;;;6133792;28;87255;-65
2022/03/23 07:37:28;;;;;;;4.90;4.50;;;22.50;61.30;;;;;;6133189;28;89110;-65
2022/03/23 07:40:30;;;;;;;5.10;4.57;;;22.50;61.30;;;;;;6124227;28;89112;-65
2022/03/23 07:43:33;;;;;;;5.18;4.35;;;22.50;61.30;;;;;;6124361;28;89990;-65
2022/03/23 07:46:35;;;;;;;4.90;4.40;;;22.50;61.30;;;;;;6133700;28;89100;-65
2022/03/23 07:49:38;;;;;;;4.85;4.18;;;22.50;61.30;;;;;;6136826;28;89104;-65
2022/03/23 07:52:40;;;;;;;4.72;4.22;;;22.60;61.50;;;;;;6127442;28;89076;-65
2022/03/23 07:55:42;;;;;;;5.20;4.60;;;22.50;61.40;;;;;;6126169;28;89443;-65
2022/03/23 07:58:45;;;;;;;4.40;4.00;;;22.50;61.50;;;;;;6135416;28;89098;-65
2022/03/23 08:01:47;;;;;;;4.60;4.20;;;22.50;61.50;;;;;;6128080;28;89206;-65
2022/03/23 08:04:49;;;;;;;4.80;4.30;;;22.60;61.50;;;;;;6121708;28;87278;-65
2022/03/23 08:07:51;;;;;;;4.45;4.05;;;22.60;61.60;;;;;;6136116;28;89345;-65
2022/03/23 08:10:53;;;;;;;4.57;4.18;;;22.60;61.50;;;;;;6129643;28;89119;-65
2022/03/23 08:13:57;;;;;;;4.55;4.15;;;22.50;61.50;;;;;;6134343;28;90071;-64
2022/03/23 08:16:59;;;;;;;4.60;4.20;;;22.60;61.60;;;;;;6122506;28;89094;-64
2022/03/23 08:23:21;;;;;;;4.40;4.00;;;22.60;61.50;;;;;;6123812;28;87378;-65
2022/03/23 08:26:23;;;;;;;4.05;3.70;;;22.60;61.60;;;;;;6127026;28;89161;-65
2022/03/23 08:29:26;;;;;;;4.30;3.90;;;22.60;61.60;;;;;;6124289;28;89174;-64
2022/03/23 08:32:28;;;;;;;4.63;4.22;;;22.60;61.60;;;;;;6118290;28;88418;-65
2022/03/23 08:35:31;;;;;;;3.78;3.47;;;22.60;61.60;;;;;;6121266;28;88655;-64
2022/03/23 08:38:33;;;;;;;4.53;4.13;;;22.60;61.60;;;;;;6134411;28;89179;-65
2022/03/23 08:41:35;;;;;;;4.38;3.97;;;22.60;61.60;;;;;;6135554;28;89427;-65
2022/03/23 08:44:40;;;;;;;4.30;3.90;;;22.60;61.60;;;;;;6133254;28;90051;-65
2022/03/23 08:47:43;;;;;;;4.43;4.03;;;22.60;61.60;;;;;;6121516;28;89600;-65
2022/03/23 08:50:45;;;;;;;4.68;4.10;;;22.60;61.60;;;;;;6120944;28;89023;-65
2022/03/23 08:53:47;;;;;;;4.60;4.20;;;22.60;61.60;;;;;;6120233;28;89368;-65
2022/03/23 08:56:49;;;;;;;4.50;4.10;;;22.60;61.60;;;;;;6135470;28;88996;-65
2022/03/23 08:59:53;;;;;;;4.90;4.50;;;22.60;61.70;;;;;;6131138;28;89045;-65
2022/03/23 09:02:55;;;;;;;4.40;4.00;;;22.60;61.60;;;;;;6130611;28;89432;-65
2022/03/23 09:05:58;;;;;;;5.20;4.30;;;22.60;61.70;;;;;;6122723;28;88369;-65
2022/03/23 09:09:19;;;;;;;4.20;3.80;;;22.60;61.70;;;;;;6120909;28;90153;-65
2022/03/23 09:12:21;;;;;;;4.20;3.80;;;22.60;61.80;;;;;;6121625;28;89369;-65
2022/03/23 09:15:24;;;;;;;4.50;4.10;;;22.70;61.80;;;;;;6132649;28;90451;-64
2022/03/23 09:18:28;;;;;;;4.50;4.10;;;22.60;61.80;;;;;;6124657;28;89316;-64
2022/03/23 09:21:30;;;;;;;3.78;3.47;;;22.70;61.90;;;;;;6130779;28;89083;-64
2022/03/23 09:24:32;;;;;;;4.15;3.75;;;22.60;61.80;;;;;;6132097;28;89045;-64
2022/03/23 09:27:35;;;;;;;4.20;3.80;;;22.70;62.00;;;;;;6134157;28;86994;-64
2022/03/23 09:30:38;;;;;;;4.20;3.80;;;22.70;62.00;;;;;;6121381;28;89191;-64
2022/03/23 09:33:40;;;;;;;4.10;3.70;;;22.70;62.00;;;;;;6121163;28;88920;-64
2022/03/23 09:40:02;;;;;;;4.30;3.90;;;22.70;62.00;;;;;;6121460;28;87240;-64
2022/03/23 09:43:05;;;;;;;3.85;3.55;;;22.70;62.00;;;;;;6110364;28;89014;-64
2022/03/23 09:46:09;;;;;;;3.83;3.53;;;22.70;62.00;;;;;;6129441;28;89929;-64
2022/03/23 09:49:11;;;;;;;3.88;3.58;;;22.70;62.10;;;;;;6131700;28;89094;-64
2022/03/23 09:52:14;;;;;;;3.90;3.50;;;22.70;62.00;;;;;;6131493;28;89129;-64
2022/03/23 09:55:16;;;;;;;4.30;3.92;;;22.70;62.10;;;;;;6133772;28;89474;-64
2022/03/23 09:58:18;;;;;;;4.18;3.78;;;22.70;62.10;;;;;;6134020;28;89182;-64
2022/03/23 10:02:25;;;;;;;3.95;3.60;;;22.70;62.10;;;;;;6131991;28;89655;-64
2022/03/23 10:06:01;;;;;;;3.75;3.45;;;22.70;62.10;;;;;;6123553;28;88950;-64
2022/03/23 10:09:45;;;;;;;3.75;3.45;;;22.70;62.20;;;;;;6122103;28;88832;-64
2022/03/23 10:13:21;;;;;;;3.97;3.65;;;22.70;62.20;;;;;;6112587;28;89119;-64
2022/03/23 10:17:19;;;;;;;4.00;3.70;;;22.70;62.20;;;;;;6133832;28;89041;-64
2022/03/23 10:20:21;;;;;;;3.55;3.25;;;22.70;62.20;;;;;;6132132;28;89988;-64
2022/03/23 10:23:23;;;;;;;3.97;3.67;;;22.80;62.30;;;;;;6132298;28;87980;-64
2022/03/23 10:26:25;;;;;;;3.85;3.55;;;22.70;62.20;;;;;;6132128;28;89276;-64
2022/03/23 10:29:43;;;;;;;3.53;3.22;;;22.70;62.20;;;;;;6132023;28;89032;-64
2022/03/23 10:32:46;;;;;;;3.90;3.60;;;22.70;62.20;;;;;;6118632;28;89103;-65
2022/03/23 10:35:48;;;;;;;3.92;3.63;;;22.70;62.30;;;;;;6119850;28;88173;-64
2022/03/23 10:38:50;;;;;;;4.03;3.70;;;22.70;62.30;;;;;;6131555;28;89679;-65
2022/03/23 10:41:58;;;;;;;3.80;3.50;;;22.70;62.30;;;;;;6109931;28;87489;-65
2022/03/23 10:45:07;;;;;;;3.88;3.58;;;22.70;62.30;;;;;;6124386;28;88904;-64
2022/03/23 10:48:13;;;;;;;3.58;3.28;;;22.80;62.40;;;;;;6123149;28;89100;-64
2022/03/23 10:51:25;;;;;;;4.15;3.45;;;22.80;62.40;;;;;;6135597;28;90069;-64
2022/03/23 10:54:28;;;;;;;3.80;3.40;;;22.80;62.40;;;;;;6122637;28;88016;-65
2022/03/23 10:58:08;;;;;;;4.13;3.72;;;22.80;62.40;;;;;;6135001;28;88237;-64
2022/03/23 11:01:10;;;;;;;3.75;3.08;;;22.80;62.40;;;;;;6120315;28;89174;-64
2022/03/23 11:04:13;;;;;;;3.60;3.30;;;22.80;62.40;;;;;;6135694;28;89106;-64
2022/03/23 11:07:26;;;;;;;3.40;3.10;;;22.80;62.50;;;;;;6125780;28;88275;-65
2022/03/23 11:17:28;;;;;;;3.47;3.17;;;22.70;62.50;;;;;;6124736;28;87227;-64
2022/03/23 11:20:43;;;;;;;3.70;3.40;;;22.80;62.50;;;;;;6113162;28;89581;-64
2022/03/23 11:23:45;;;;;;;3.60;3.30;;;22.80;62.50;;;;;;6121612;28;90283;-64
2022/03/23 11:26:47;;;;;;;3.20;2.90;;;22.80;62.50;;;;;;6124558;28;89243;-65
2022/03/23 11:29:51;;;;;;;3.22;2.92;;;22.80;62.50;;;;;;6134233;28;89376;-64
2022/03/23 11:32:53;;;;;;;3.63;3.33;;;22.80;62.50;;;;;;6122777;28;89089;-65
2022/03/23 11:35:56;;;;;;;3.40;3.08;;;22.80;63.50;;;;;;6122546;28;89042;-64
2022/03/23 11:39:04;;;;;;;3.42;3.13;;;22.90;62.60;;;;;;6136977;28;89109;-64
2022/03/23 11:42:06;;;;;;;3.50;3.20;;;22.80;62.50;;;;;;6122024;28;87056;-65
2022/03/23 11:45:12;;;;;;;3.40;3.10;;;22.90;62.60;;;;;;6135003;28;88298;-64
2022/03/23 11:48:30;;;;;;;3.50;3.20;;;22.80;62.50;;;;;;6134897;28;89372;-65
2022/03/23 11:52:17;;;;;;;3.42;3.13;;;22.80;62.60;;;;;;6111947;28;88205;-65
2022/03/23 11:55:41;;;;;;;3.35;3.08;;;22.80;62.60;;;;;;6127098;28;90022;-65
2022/03/23 11:58:43;;;;;;;3.30;3.00;;;22.90;62.70;;;;;;6120994;28;89102;-65
2022/03/23 12:01:45;;;;;;;3.53;3.22;;;22.80;62.60;;;;;;6132055;28;89068;-65
2022/03/23 12:04:47;;;;;;;3.00;2.80;;;22.80;62.60;;;;;;6133873;28;89123;-65
2022/03/23 12:07:50;;;;;;;3.38;3.08;;;22.80;62.70;;;;;;6134587;28;89044;-65
2022/03/23 12:10:52;;;;;;;3.40;3.10;;;22.80;62.60;;;;;;6135661;28;89121;-65
2022/03/23 12:13:58;;;;;;;3.20;2.90;;;22.80;62.60;;;;;;6122831;28;89213;-65
2022/03/23 12:17:18;;;;;;;3.05;2.85;;;22.80;62.60;;;;;;6133762;28;88299;-65
2022/03/23 12:20:29;;;;;;;3.35;3.05;;;22.80;62.60;;;;;;6123448;28;87892;-65
2022/03/23 12:23:42;;;;;;;3.00;2.80;;;22.90;62.70;;;;;;6109942;28;88978;-65
2022/03/23 12:26:51;;;;;;;3.03;2.75;;;22.80;62.60;;;;;;6109874;28;90028;-65
2022/03/23 12:29:57;;;;;;;3.38;3.08;;;22.90;62.70;;;;;;6133134;28;89172;-65
2022/03/23 12:33:01;;;;;;;2.92;2.72;;;22.80;62.70;;;;;;6114782;28;88962;-65
2022/03/23 12:36:04;;;;;;;2.70;2.50;;;22.80;62.70;;;;;;6117985;28;87119;-65
2022/03/23 12:39:08;;;;;;;3.15;2.92;;;22.80;62.70;;;;;;6124864;28;89151;-65
2022/03/23 12:42:27;;;;;;;3.45;3.15;;;22.80;62.70;;;;;;6122623;28;89099;-65
2022/03/23 12:45:34;;;;;;;3.08;2.85;;;22.90;62.80;;;;;;6133324;28;89074;-65
2022/03/23 12:58:41;;;;;;;2.90;2.70;;;22.80;62.80;;;;;;6133947;28;88236;-66
2022/03/23 13:01:44;;;;;;;3.17;2.88;;;22.80;62.70;;;;;;6129057;28;89287;-65
2022/03/23 13:04:52;;;;;;;2.90;2.70;;;22.80;62.70;;;;;;6132360;28;89102;-66
2022/03/23 13:07:54;;;;;;;3.10;2.85;;;22.90;62.80;;;;;;6118196;28;88995;-65
2022/03/23 13:10:59;;;;;;;3.10;2.80;;;22.90;62.70;;;;;;6134194;28;87795;-65
2022/03/23 13:14:02;;;;;;;2.70;2.50;;;22.90;62.70;;;;;;6124668;28;88969;-65
2022/03/23 13:17:05;;;;;;;2.90;2.70;;;22.80;62.80;;;;;;6120796;28;89390;-65
2022/03/23 13:20:09;;;;;;;2.80;2.60;;;22.90;62.80;;;;;;6133663;28;88596;-65
2022/03/23 13:23:17;;;;;;;2.67;2.47;;;22.90;63.60;;;;;;6124394;28;88936;-65
2022/03/23 13:26:22;;;;;;;2.78;2.50;;;22.90;62.70;;;;;;6130737;28;88946;-65
2022/03/23 13:29:25;;;;;;;2.72;2.53;;;22.90;62.70;;;;;;6125568;28;90031;-65
2022/03/23 13:32:32;;;;;;;2.90;2.70;;;22.90;62.70;;;;;;6114434;28;89512;-65
2022/03/23 13:35:43;;;;;;;2.72;2.53;;;22.90;62.70;;;;;;6121306;28;89094;-65
2022/03/23 13:38:47;;;;;;;2.85;2.60;;;22.90;62.70;;;;;;6121005;28;88048;-65
2022/03/23 13:45:12;;;;;;;2.85;2.65;;;22.90;62.80;;;;;;6122130;28;88288;-65
2022/03/23 13:48:14;;;;;;;2.55;2.35;;;22.90;62.80;;;;;;6120802;28;88025;-65
2022/03/23 13:51:19;;;;;;;2.72;2.53;;;22.80;62.80;;;;;;6131671;28;87227;-65
2022/03/23 13:54:22;;;;;;;2.58;2.38;;;22.80;62.80;;;;;;6123623;28;89156;-65
2022/03/23 13:57:29;;;;;;;2.60;2.40;;;22.80;62.80;;;;;;6129531;28;91673;-65
2022/03/23 14:00:35;;;;;;;2.75;2.55;;;22.90;62.80;;;;;;6119731;28;90137;-65
2022/03/23 14:03:39;;;;;;;2.63;2.42;;;22.80;62.80;;;;;;6125399;28;89104;-65
2022/03/23 14:06:43;;;;;;;2.90;2.70;;;22.80;62.80;;;;;;6126896;28;89144;-65
2022/03/23 14:09:48;;;;;;;2.95;2.75;;;22.80;62.80;;;;;;6120073;28;89040;-65
2022/03/23 14:12:52;;;;;;;2.70;2.50;;;22.80;62.90;;;;;;6131129;28;87929;-65
2022/03/23 14:15:56;;;;;;;2.35;2.15;;;22.80;62.80;;;;;;6133141;28;89138;-65
2022/03/23 14:19:17;;;;;;;2.90;2.70;;;22.80;62.80;;;;;;6134183;28;89009;-65
2022/03/23 14:22:22;;;;;;;2.80;2.60;;;22.80;62.90;;;;;;6127241;28;88218;-65
2022/03/23 14:25:27;;;;;;;2.80;2.60;;;22.80;62.80;;;;;;6136484;28;89050;-65
2022/03/23 14:28:30;;;;;;;2.55;2.35;;;22.80;62.80;;;;;;6136109;28;87794;-65
2022/03/23 14:31:32;;;;;;;2.72;2.53;;;22.80;62.80;;;;;;6118410;28;89968;-65
2022/03/23 14:34:37;;;;;;;2.58;2.38;;;22.80;62.80;;;;;;6119160;28;89300;-65
2022/03/23 14:37:41;;;;;;;2.47;2.28;;;22.80;62.80;;;;;;6131489;28;89085;-65
2022/03/23 14:40:49;;;;;;;2.50;2.30;;;22.80;62.80;;;;;;6126343;28;89201;-65
2022/03/23 14:43:52;;;;;;;3.10;2.22;;;22.80;62.80;;;;;;6124692;28;89111;-65
2022/03/23 14:46:54;;;;;;;2.60;2.20;;;22.80;63.00;;;;;;6133575;28;89242;-64
2022/03/23 14:49:56;;;;;;;3.22;2.65;;;22.90;63.00;;;;;;6126672;28;89226;-64
2022/03/23 14:52:58;;;;;;;4.10;2.33;;;22.90;62.80;;;;;;6118410;28;88459;-64
2022/03/23 14:56:01;;;;;;;3.03;2.50;;;22.90;62.80;;;;;;6135343;28;89149;-64
2022/03/23 14:59:05;;;;;;;5.45;3.30;;;22.90;62.70;;;;;;6129100;28;89076;-63
2022/03/23 15:02:07;;;;;;;5.32;3.50;;;22.90;56.40;;;;;;6127106;28;89191;-65
2022/03/23 15:13:15;;;;;;;4.15;3.42;;;22.80;56.30;;;;;;6125072;28;89271;-66
2022/03/23 15:15:12;;;;;;;4.05;3.65;;;22.70;55.10;;;;;;6125614;28;88032;-65
2022/03/23 15:18:15;;;;;;;3.42;3.13;;;22.70;54.20;;;;;;6129359;28;89117;-66
2022/03/23 15:21:19;;;;;;;6.57;4.15;;;22.70;54.30;;;;;;6135904;28;88924;-66
2022/03/23 15:24:21;;;;;;;4.70;3.95;;;22.70;55.00;;;;;;6119760;28;87584;-66
2022/03/23 15:27:23;;;;;;;6.90;4.53;;;22.60;52.40;;;;;;6135570;28;89008;-66
2022/03/23 15:30:27;;;;;;;6.47;4.15;;;22.60;51.60;;;;;;6132184;28;88933;-65
2022/03/23 15:33:29;;;;;;;13.30;6.90;;;22.60;51.80;;;;;;6118648;28;91104;-66
2022/03/23 15:36:32;;;;;;;11.65;6.05;;;22.60;51.20;;;;;;6126893;28;89040;-66
2022/03/23 15:39:34;;;;;;;6.85;4.40;;;22.60;50.70;;;;;;6123778;28;89188;-66
2022/03/23 15:45:58;;;;;;;4.97;3.97;;;22.50;50.20;;;;;;6129176;28;87338;-67
2022/03/23 15:49:00;;;;;;;5.95;3.90;;;22.50;49.90;;;;;;6135076;28;88879;-66
2022/03/23 15:52:02;;;;;;;4.15;3.70;;;22.50;50.00;;;;;;6135314;28;88975;-66
2022/03/23 15:55:05;;;;;;;5.03;3.45;;;22.50;50.00;;;;;;6134056;28;88724;-66
2022/03/23 15:58:07;;;;;;;4.65;3.83;;;22.50;51.10;;;;;;6117455;28;89250;-66
2022/03/23 16:01:10;;;;;;;6.18;4.03;;;22.50;51.30;;;;;;6121806;28;88914;-66
2022/03/23 16:04:12;;;;;;;13.75;6.35;;;22.50;51.00;;;;;;6133762;28;88849;-66
2022/03/23 16:07:15;;;;;;;15.30;6.68;;;22.50;50.80;;;;;;6132873;28;89084;-67
2022/03/23 16:10:18;;;;;;;12.88;6.82;;;22.50;51.50;;;;;;6135038;28;89060;-67
2022/03/23 16:13:20;;;;;;;10.55;5.40;;;22.50;51.40;;;;;;6134594;28;88983;-66
2022/03/23 16:16:25;;;;;;;10.40;4.90;;;22.50;50.80;;;;;;6125171;28;89417;-66
2022/03/23 16:19:27;;;;;;;6.63;4.13;;;22.50;49.70;;;;;;6131470;28;88969;-66
2022/03/23 16:22:29;;;;;;;7.93;4.07;;;22.50;49.80;;;;;;6133205;28;89195;-66
2022/03/23 16:25:31;;;;;;;4.85;3.50;;;22.50;49.00;;;;;;6136414;28;88255;-65
2022/03/23 16:28:33;;;;;;;5.57;3.33;;;22.40;48.60;;;;;;6120833;28;89161;-65
2022/03/23 16:31:37;;;;;;;4.18;3.50;;;22.40;48.50;;;;;;6119971;28;89314;-66
2022/03/23 16:34:39;;;;;;;6.40;3.30;;;22.40;48.90;;;;;;6127274;28;89944;-66
2022/03/23 16:37:45;;;;;;;4.90;2.90;;;22.40;48.90;;;;;;6120833;28;89064;-66
2022/03/23 16:40:48;;;;;;;3.85;3.00;;;22.40;49.10;;;;;;6132278;28;88892;-66
2022/03/23 16:43:50;;;;;;;3.97;2.90;;;22.40;48.90;;;;;;6124092;28;89377;-66